Time;durP1;ratioP1;P1;durP2;ratioP2;P2;SDS_P1;SDS_P2;PMS_P1;PMS_P2;Temp;Humidity;BMP_temperature;BMP_pressure;BME280_temperature;BME280_humidity;BME280_pressure;Samples;Min_cycle;Max_cycle;Signal;HPM_P1;HPM_P2
2022/05/01 00:01:08;;;;;;;;;11.40;11.00;;;;;7.48;60.39;100635.47;5098182;28;8861;-63
2022/05/01 00:03:36;;;;;;;;;9.80;9.60;;;;;7.46;60.35;100642.66;5096830;28;8835;-62
2022/05/01 00:06:04;;;;;;;;;8.60;6.80;;;;;7.41;60.42;100634.13;5095554;28;8842;-63
2022/05/01 00:08:32;;;;;;;;;6.80;6.00;;;;;7.35;60.57;100639.78;5097075;28;8849;-62
2022/05/01 00:11:00;;;;;;;;;7.00;6.60;;;;;7.29;60.44;100635.66;5096420;28;8847;-62
2022/05/01 00:13:43;;;;;;;;;8.60;7.00;;;;;7.22;60.72;100633.44;5094430;28;8978;-62
2022/05/01 00:16:11;;;;;;;;;8.40;7.40;;;;;7.19;60.81;100633.63;5096125;28;8847;-62
2022/05/01 00:18:39;;;;;;;;;11.60;9.20;;;;;7.15;61.22;100626.75;5096930;28;8963;-62
2022/05/01 00:21:07;;;;;;;;;12.40;11.60;;;;;7.11;61.42;100631.38;5096614;28;8871;-62
2022/05/01 00:23:35;;;;;;;;;15.00;13.40;;;;;7.09;61.25;100633.25;5096350;28;9002;-62
2022/05/01 00:26:02;;;;;;;;;12.80;10.00;;;;;7.07;61.08;100628.97;5096312;28;8827;-62
2022/05/01 00:28:30;;;;;;;;;7.80;7.80;;;;;7.08;61.52;100633.34;5097539;28;8849;-62
2022/05/01 00:30:58;;;;;;;;;12.40;9.60;;;;;7.07;61.12;100634.28;5097690;28;8819;-62
2022/05/01 00:36:29;;;;;;;;;9.40;9.20;;;;;7.03;61.16;100638.00;5097786;28;8851;-62
2022/05/01 00:38:56;;;;;;;;;10.00;9.20;;;;;7.00;61.85;100635.53;5097805;28;8843;-61
2022/05/01 00:41:27;;;;;;;;;13.80;12.60;;;;;6.96;61.37;100631.38;5097836;28;8828;-62
2022/05/01 00:43:55;;;;;;;;;12.80;10.00;;;;;6.90;62.04;100640.47;5097774;28;8839;-62
2022/05/01 00:46:23;;;;;;;;;5.80;4.40;;;;;6.86;61.72;100632.78;5097416;28;9645;-62
2022/05/01 00:48:51;;;;;;;;;13.40;12.00;;;;;6.80;61.86;100641.03;5097015;28;8963;-63
2022/05/01 00:51:20;;;;;;;;;11.60;7.80;;;;;6.74;62.21;100634.28;5097092;28;8855;-62
2022/05/01 00:53:47;;;;;;;;;10.00;9.40;;;;;6.70;62.16;100634.53;5097402;28;8839;-62
2022/05/01 00:56:16;;;;;;;;;5.20;5.20;;;;;6.66;62.40;100625.91;5097319;28;8831;-62
2022/05/01 00:58:44;;;;;;;;;6.60;5.20;;;;;6.68;62.35;100628.47;5096968;28;8924;-63
2022/05/01 01:01:11;;;;;;;;;4.80;3.80;;;;;6.69;62.65;100631.00;5097280;28;8811;-62
2022/05/01 01:03:40;;;;;;;;;10.80;9.20;;;;;6.71;62.65;100628.28;5096631;28;8900;-62
2022/05/01 01:06:07;;;;;;;;;10.80;10.80;;;;;6.71;62.29;100634.47;5096930;28;8854;-62
2022/05/01 01:08:35;;;;;;;;;9.20;7.00;;;;;6.70;62.58;100627.47;5096939;28;8824;-62
2022/05/01 01:11:03;;;;;;;;;9.20;7.40;;;;;6.69;62.42;100627.53;5096780;28;8847;-63
2022/05/01 01:13:31;;;;;;;;;9.80;8.20;;;;;6.68;62.06;100636.41;5096795;28;8942;-62
2022/05/01 01:15:58;;;;;;;;;10.80;9.60;;;;;6.66;62.63;100636.47;5096910;28;8846;-62
2022/05/01 01:18:26;;;;;;;;;11.20;9.40;;;;;6.63;62.09;100634.00;5096736;28;8835;-64
2022/05/01 01:20:54;;;;;;;;;9.60;9.00;;;;;6.63;62.48;100628.72;5096580;28;8879;-63
2022/05/01 01:23:22;;;;;;;;;9.00;9.00;;;;;6.62;62.18;100634.94;5097034;28;8827;-62
2022/05/01 01:25:49;;;;;;;;;9.40;6.80;;;;;6.61;62.66;100641.16;5096120;28;8846;-62
2022/05/01 01:28:18;;;;;;;;;10.20;8.60;;;;;6.61;62.41;100632.38;5096497;28;8828;-63
2022/05/01 01:33:31;;;;;;;;;10.40;9.20;;;;;6.57;62.30;100639.63;5095881;28;8858;-62
2022/05/01 01:35:59;;;;;;;;;11.20;9.40;;;;;6.55;62.24;100633.56;5096614;28;8828;-62
2022/05/01 01:38:26;;;;;;;;;8.80;8.80;;;;;6.52;62.26;100635.50;5096532;28;8820;-62
2022/05/01 01:40:54;;;;;;;;;9.80;9.60;;;;;6.47;62.29;100640.16;5096374;28;8886;-62
2022/05/01 01:43:22;;;;;;;;;7.20;6.60;;;;;6.41;62.48;100638.69;5095890;28;8831;-61
2022/05/01 01:45:49;;;;;;;;;9.40;9.00;;;;;6.35;63.09;100632.84;5096465;28;8845;-64
2022/05/01 01:48:17;;;;;;;;;7.40;7.00;;;;;6.31;63.32;100641.91;5096514;28;8862;-63
2022/05/01 01:50:45;;;;;;;;;6.80;6.20;;;;;6.28;62.94;100634.09;5096550;28;8848;-62
2022/05/01 01:53:12;;;;;;;;;10.80;9.60;;;;;6.25;62.79;100634.25;5095075;28;8835;-62
2022/05/01 01:55:40;;;;;;;;;9.60;8.60;;;;;6.21;63.46;100641.50;5094334;28;8866;-62
2022/05/01 01:58:08;;;;;;;;;6.40;6.00;;;;;6.20;63.53;100638.91;5094773;28;8839;-63
2022/05/01 02:00:36;;;;;;;;;3.40;3.40;;;;;6.19;62.71;100640.72;5094301;28;8958;-63
2022/05/01 02:03:04;;;;;;;;;6.00;6.00;;;;;6.17;63.46;100636.44;5094032;28;8812;-62
2022/05/01 02:05:32;;;;;;;;;12.40;10.00;;;;;6.15;63.43;100630.38;5094244;28;8846;-62
2022/05/01 02:08:00;;;;;;;;;10.00;10.00;;;;;6.13;63.17;100641.03;5093801;28;8844;-62
2022/05/01 02:10:28;;;;;;;;;9.60;8.80;;;;;6.11;63.42;100637.63;5094321;28;8900;-62
2022/05/01 02:12:55;;;;;;;;;8.00;7.80;;;;;6.09;63.03;100630.69;5094428;28;8840;-62
2022/05/01 02:15:23;;;;;;;;;13.20;12.60;;;;;6.08;62.94;100631.63;5095510;28;8838;-62
2022/05/01 02:17:51;;;;;;;;;8.60;7.00;;;;;6.05;63.41;100634.41;5095762;28;8836;-63
2022/05/01 02:20:19;;;;;;;;;7.00;7.00;;;;;6.03;63.02;100623.94;5095637;28;8866;-62
2022/05/01 02:22:46;;;;;;;;;7.00;6.00;;;;;6.00;63.25;100626.72;5095548;28;8897;-62
2022/05/01 02:25:14;;;;;;;;;4.20;3.00;;;;;5.99;63.48;100629.47;5096019;28;8850;-61
2022/05/01 02:27:42;;;;;;;;;9.00;9.00;;;;;5.94;63.46;100627.03;5095672;28;8855;-62
2022/05/01 02:30:11;;;;;;;;;11.60;10.60;;;;;5.91;63.49;100623.69;5095549;28;8917;-63
2022/05/01 02:32:38;;;;;;;;;9.00;7.00;;;;;5.89;63.64;100625.53;5096132;28;9505;-62
2022/05/01 02:35:06;;;;;;;;;7.80;6.80;;;;;5.87;63.37;100623.00;5095812;28;9521;-62
2022/05/01 02:37:34;;;;;;;;;8.60;7.40;;;;;5.88;63.67;100624.69;5095400;28;8839;-62
2022/05/01 02:40:01;;;;;;;;;9.60;7.00;;;;;5.89;63.74;100623.75;5095284;28;8851;-62
2022/05/01 02:42:29;;;;;;;;;8.80;8.60;;;;;5.87;63.41;100616.84;5095679;28;8834;-62
2022/05/01 02:44:57;;;;;;;;;10.00;9.40;;;;;5.85;63.46;100619.53;5097243;28;8823;-63
2022/05/01 02:47:25;;;;;;;;;8.40;7.40;;;;;5.84;63.66;100628.41;5098812;28;8824;-63
2022/05/01 02:49:52;;;;;;;;;8.60;7.20;;;;;5.84;63.63;100620.47;5099626;28;8875;-62
2022/05/01 02:52:21;;;;;;;;;8.80;7.80;;;;;5.87;63.27;100624.78;5099430;28;9544;-62
2022/05/01 02:54:48;;;;;;;;;12.40;7.80;;;;;5.92;63.31;100623.59;5099287;28;8830;-63
2022/05/01 02:57:16;;;;;;;;;13.00;11.60;;;;;5.94;63.14;100621.75;5099347;28;8832;-63
2022/05/01 02:59:44;;;;;;;;;6.60;6.60;;;;;5.98;63.26;100611.84;5099647;28;8834;-63
2022/05/01 03:02:12;;;;;;;;;10.00;9.60;;;;;6.00;63.37;100605.56;5099178;28;8862;-63
2022/05/01 03:04:40;;;;;;;;;9.60;5.20;;;;;6.02;63.27;100609.00;5099568;28;8852;-62
2022/05/01 03:07:07;;;;;;;;;10.00;10.00;;;;;6.05;63.38;100608.84;5099369;28;9548;-63
2022/05/01 03:09:35;;;;;;;;;14.20;11.80;;;;;6.04;63.26;100599.22;5099473;28;8834;-62
2022/05/01 03:12:03;;;;;;;;;9.20;8.00;;;;;6.00;63.17;100610.84;5099528;28;8827;-63
2022/05/01 03:14:30;;;;;;;;;6.80;5.80;;;;;5.93;63.53;100608.59;5099115;28;8836;-62
2022/05/01 03:16:58;;;;;;;;;10.80;10.80;;;;;5.87;63.73;100608.91;5099015;28;8956;-63
2022/05/01 03:22:13;;;;;;;;;7.40;7.00;;;;;5.80;63.76;100602.22;5098483;28;8851;-62
2022/05/01 03:24:41;;;;;;;;;9.00;9.00;;;;;5.82;63.67;100597.69;5098766;28;8833;-63
2022/05/01 03:27:09;;;;;;;;;9.20;7.40;;;;;5.83;62.91;100602.06;5098746;28;8839;-63
2022/05/01 03:29:36;;;;;;;;;10.00;9.80;;;;;5.88;63.59;100594.75;5097418;28;8827;-63
2022/05/01 03:32:07;;;;;;;;;9.40;9.20;;;;;5.93;62.83;100590.94;5096046;28;8823;-62
2022/05/01 03:34:37;;;;;;;;;7.00;6.60;;;;;6.02;63.23;100592.28;5097390;28;8827;-63
2022/05/01 03:37:06;;;;;;;;;14.40;9.40;;;;;6.11;62.77;100586.53;5098326;28;8862;-63
2022/05/01 03:39:34;;;;;;;;;9.00;8.60;;;;;6.17;62.90;100592.38;5098462;28;9535;-63
2022/05/01 03:42:02;;;;;;;;;12.40;11.20;;;;;6.24;62.93;100588.47;5098482;28;8827;-62
2022/05/01 03:44:29;;;;;;;;;11.20;9.40;;;;;6.32;62.33;100593.34;5098815;28;9064;-63
2022/05/01 03:46:58;;;;;;;;;7.00;6.00;;;;;6.47;62.10;100596.06;5098293;28;8827;-63
2022/05/01 03:49:26;;;;;;;;;10.40;10.40;;;;;6.58;62.03;100595.47;5096842;28;8950;-63
2022/05/01 03:51:53;;;;;;;;;6.40;3.80;;;;;6.62;62.07;100604.97;5096060;28;9560;-63
2022/05/01 03:54:21;;;;;;;;;12.00;10.40;;;;;6.58;62.03;100600.75;5096940;28;8950;-62
2022/05/01 03:56:49;;;;;;;;;11.20;11.20;;;;;6.52;62.37;100598.47;5098136;28;8835;-63
2022/05/01 03:59:17;;;;;;;;;9.40;9.00;;;;;6.46;62.94;100594.31;5098626;28;8851;-63
2022/05/01 04:01:45;;;;;;;;;8.20;6.60;;;;;6.41;62.67;100590.22;5098015;28;8824;-62
2022/05/01 04:04:13;;;;;;;;;7.80;4.00;;;;;6.38;62.60;100593.88;5098203;28;8858;-64
2022/05/01 04:06:40;;;;;;;;;10.80;10.00;;;;;6.36;62.83;100592.28;5098616;28;8848;-62
2022/05/01 04:09:08;;;;;;;;;10.80;10.20;;;;;6.34;63.07;100587.06;5098007;28;8831;-62
2022/05/01 04:11:36;;;;;;;;;15.40;12.60;;;;;6.35;62.93;100590.53;5097705;28;9544;-62
2022/05/01 04:14:03;;;;;;;;;10.80;10.00;;;;;6.36;62.63;100598.41;5097726;28;9330;-62
2022/05/01 04:16:31;;;;;;;;;10.20;9.60;;;;;6.36;62.84;100594.91;5097734;28;8877;-61
2022/05/01 04:18:59;;;;;;;;;12.80;11.60;;;;;6.36;63.05;100592.28;5098256;28;8970;-62
2022/05/01 04:21:27;;;;;;;;;13.80;9.40;;;;;6.36;63.29;100598.41;5097709;28;8848;-63
2022/05/01 04:23:54;;;;;;;;;6.20;6.20;;;;;6.31;63.15;100592.47;5097360;28;8808;-63
2022/05/01 04:26:22;;;;;;;;;6.60;6.60;;;;;6.28;62.97;100589.16;5097714;28;8812;-62
2022/05/01 04:31:35;;;;;;;;;10.40;7.00;;;;;6.24;63.13;100598.19;5097992;28;8917;-62
2022/05/01 04:34:04;;;;;;;;;10.80;9.40;;;;;6.23;63.32;100585.91;5097401;28;8974;-63
2022/05/01 04:36:32;;;;;;;;;9.80;7.20;;;;;6.24;63.72;100591.13;5097596;28;8836;-63
2022/05/01 04:39:00;;;;;;;;;11.80;11.20;;;;;6.26;63.56;100593.66;5097349;28;8820;-63
2022/05/01 04:41:28;;;;;;;;;9.20;9.20;;;;;6.31;62.74;100591.66;5097414;28;8878;-62
2022/05/01 04:43:56;;;;;;;;;10.00;8.60;;;;;6.37;63.08;100602.75;5097322;28;8819;-62
2022/05/01 04:46:23;;;;;;;;;7.00;6.80;;;;;6.45;62.92;100597.06;5097139;28;8823;-62
2022/05/01 04:48:51;;;;;;;;;9.00;9.00;;;;;6.51;62.61;100587.03;5097205;28;8828;-62
2022/05/01 04:51:19;;;;;;;;;12.00;10.80;;;;;6.58;62.90;100593.69;5097399;28;8869;-63
2022/05/01 04:53:47;;;;;;;;;10.80;10.20;;;;;6.67;62.54;100592.38;5097812;28;8824;-62
2022/05/01 04:59:01;;;;;;;;;11.40;11.20;;;;;6.92;62.15;100590.97;5097076;28;8831;-62
2022/05/01 05:01:28;;;;;;;;;11.60;10.80;;;;;7.04;61.42;100592.09;5096771;28;8824;-63
2022/05/01 05:03:58;;;;;;;;;15.60;12.60;;;;;7.14;61.51;100593.28;5096717;28;8946;-63
2022/05/01 05:06:26;;;;;;;;;10.00;9.80;;;;;7.20;61.66;100592.94;5097017;28;8816;-62
2022/05/01 05:11:39;;;;;;;;;12.20;9.80;;;;;7.29;61.47;100603.03;5096953;28;8847;-64
2022/05/01 05:14:07;;;;;;;;;12.00;9.80;;;;;7.30;61.76;100600.31;5096704;28;8820;-62
2022/05/01 05:16:35;;;;;;;;;15.80;13.80;;;;;7.31;61.27;100603.78;5096416;28;8820;-62
2022/05/01 05:19:03;;;;;;;;;14.00;11.20;;;;;7.35;61.03;100602.69;5096491;28;8839;-63
2022/05/01 05:21:30;;;;;;;;;16.40;15.00;;;;;7.39;61.67;100610.38;5096381;28;8866;-63
2022/05/01 05:23:58;;;;;;;;;9.80;9.40;;;;;7.41;61.43;100612.91;5096754;28;8833;-63
2022/05/01 05:26:26;;;;;;;;;14.40;13.60;;;;;7.49;61.31;100605.44;5096578;28;8836;-63
2022/05/01 05:28:54;;;;;;;;;12.20;12.00;;;;;7.60;61.19;100609.16;5096002;28;9508;-62
2022/05/01 05:31:22;;;;;;;;;10.80;9.40;;;;;7.74;60.57;100607.44;5096364;28;8849;-63
2022/05/01 05:33:50;;;;;;;;;13.80;13.40;;;;;7.86;60.63;100601.44;5096341;28;8824;-63
2022/05/01 05:36:17;;;;;;;;;9.20;9.00;;;;;7.97;60.54;100606.94;5096533;28;8834;-63
2022/05/01 05:38:45;;;;;;;;;14.80;13.40;;;;;8.09;60.51;100608.91;5096226;28;9507;-63
2022/05/01 05:41:17;;;;;;;;;15.20;15.00;;;;;8.18;60.11;100608.34;5096156;28;8836;-63
2022/05/01 05:43:45;;;;;;;;;13.00;12.80;;;;;8.29;60.13;100610.41;5096177;28;8837;-63
2022/05/01 05:46:13;;;;;;;;;14.40;12.20;;;;;8.36;59.82;100609.91;5096145;28;8862;-62
2022/05/01 05:48:41;;;;;;;;;17.20;14.60;;;;;8.43;60.22;100611.25;5096062;28;8812;-63
2022/05/01 05:51:08;;;;;;;;;12.20;10.40;;;;;8.45;59.93;100611.19;5095905;28;8859;-63
2022/05/01 05:53:36;;;;;;;;;11.00;8.60;;;;;8.45;60.00;100617.31;5095454;28;8842;-63
2022/05/01 05:56:04;;;;;;;;;12.00;11.20;;;;;8.43;60.09;100615.75;5094347;28;8969;-63
2022/05/01 05:58:31;;;;;;;;;10.80;10.80;;;;;8.44;59.97;100615.63;5094436;28;8846;-63
2022/05/01 06:00:59;;;;;;;;;14.20;13.80;;;;;8.48;60.24;100617.16;5094767;28;8903;-63
2022/05/01 06:03:27;;;;;;;;;15.20;15.00;;;;;8.58;59.72;100618.31;5094336;28;8835;-63
2022/05/01 06:05:54;;;;;;;;;13.00;12.00;;;;;8.72;59.88;100620.09;5094539;28;8835;-63
2022/05/01 06:08:22;;;;;;;;;12.00;10.80;;;;;8.84;59.78;100620.22;5094057;28;8835;-63
2022/05/01 06:10:50;;;;;;;;;18.80;13.00;;;;;8.96;59.57;100614.16;5095056;28;8824;-63
2022/05/01 06:13:18;;;;;;;;;16.00;16.00;;;;;9.06;59.10;100617.94;5095592;28;8824;-63
2022/05/01 06:15:46;;;;;;;;;15.20;15.00;;;;;9.21;59.53;100624.09;5095621;28;8855;-63
2022/05/01 06:18:14;;;;;;;;;15.20;14.20;;;;;9.37;59.16;100615.06;5094351;28;8862;-62
2022/05/01 06:20:42;;;;;;;;;12.60;12.00;;;;;9.52;58.96;100622.06;5094377;28;8844;-63
2022/05/01 06:23:09;;;;;;;;;16.80;15.40;;;;;9.65;58.48;100620.28;5093981;28;8852;-63
2022/05/01 06:25:38;;;;;;;;;20.00;13.20;;;;;9.78;58.58;100610.56;5094314;28;8873;-63
2022/05/01 06:28:06;;;;;;;;;11.20;9.40;;;;;9.97;58.60;100616.38;5094285;28;8848;-63
2022/05/01 06:30:34;;;;;;;;;11.80;11.60;;;;;10.15;57.99;100615.19;5094576;28;8920;-63
2022/05/01 06:33:01;;;;;;;;;14.60;13.00;;;;;10.33;57.36;100616.59;5095320;28;9536;-63
2022/05/01 06:35:31;;;;;;;;;17.80;15.60;;;;;10.54;57.10;100612.47;5095853;28;8859;-62
2022/05/01 06:37:59;;;;;;;;;10.50;10.00;;;;;10.70;57.08;100618.44;5095259;28;8843;-63
2022/05/01 06:40:27;;;;;;;;;13.00;12.75;;;;;10.78;57.23;100615.25;5095793;28;8831;-63
2022/05/01 06:42:54;;;;;;;;;13.00;12.75;;;;;10.85;56.95;100614.69;5095589;28;8844;-63
2022/05/01 06:45:22;;;;;;;;;11.60;11.20;;;;;10.91;56.73;100616.13;5095628;28;8912;-63
2022/05/01 06:47:50;;;;;;;;;14.00;14.00;;;;;10.97;56.56;100615.66;5095532;28;8851;-63
2022/05/01 06:50:17;;;;;;;;;15.20;15.00;;;;;11.06;56.47;100610.53;5094161;28;8847;-63
2022/05/01 06:52:45;;;;;;;;;15.00;14.50;;;;;11.20;56.55;100612.22;5095024;28;8820;-62
2022/05/01 06:55:14;;;;;;;;;20.00;16.00;;;;;11.31;56.39;100610.47;5095475;28;8945;-64
2022/05/01 06:57:41;;;;;;;;;17.00;14.00;;;;;11.41;56.53;100610.66;5095147;28;8850;-63
2022/05/01 07:00:11;;;;;;;;;15.00;14.50;;;;;11.54;56.06;100611.50;5093782;28;8859;-62
2022/05/01 07:02:38;;;;;;;;;15.75;15.50;;;;;11.65;55.63;100604.44;5094113;28;8908;-63
2022/05/01 07:05:06;;;;;;;;;12.00;10.50;;;;;11.78;55.87;100607.91;5093993;28;8823;-63
2022/05/01 07:07:34;;;;;;;;;15.75;12.75;;;;;11.88;55.91;100611.59;5094331;28;8838;-63
2022/05/01 07:10:02;;;;;;;;;14.50;13.00;;;;;11.95;55.63;100610.19;5094289;28;8851;-63
2022/05/01 07:12:30;;;;;;;;;13.75;11.00;;;;;12.02;56.16;100611.44;5095361;28;9490;-63
2022/05/01 07:14:57;;;;;;;;;18.50;16.00;;;;;12.12;55.60;100610.63;5095135;28;9524;-63
2022/05/01 07:17:25;;;;;;;;;16.75;16.50;;;;;12.23;55.72;100609.81;5095091;28;9501;-63
2022/05/01 07:19:53;;;;;;;;;12.25;12.25;;;;;12.35;55.33;100609.72;5094856;28;8874;-63
2022/05/01 07:22:20;;;;;;;;;14.00;14.00;;;;;12.45;55.28;100609.88;5095145;28;8828;-63
2022/05/01 07:24:48;;;;;;;;;15.00;11.25;;;;;12.53;55.44;100615.50;5095318;28;8966;-63
2022/05/01 07:27:16;;;;;;;;;16.00;14.00;;;;;12.63;54.89;100616.47;5095133;28;8965;-63
2022/05/01 07:29:44;;;;;;;;;19.00;15.50;;;;;12.71;55.08;100614.94;5095826;28;8954;-63
2022/05/01 07:32:12;;;;;;;;;12.00;10.00;;;;;12.77;54.87;100613.59;5098427;28;8904;-63
2022/05/01 07:34:40;;;;;;;;;14.00;12.00;;;;;12.87;54.94;100611.88;5098357;28;8839;-63
2022/05/01 07:37:08;;;;;;;;;16.00;15.25;;;;;12.96;54.33;100609.38;5097993;28;8835;-62
2022/05/01 07:39:36;;;;;;;;;18.75;17.75;;;;;13.02;54.34;100605.38;5098767;28;8957;-63
2022/05/01 07:42:03;;;;;;;;;20.50;16.00;;;;;13.09;54.52;100606.59;5098627;28;8920;-63
2022/05/01 07:44:31;;;;;;;;;14.50;12.00;;;;;13.14;54.77;100602.56;5098221;28;8885;-63
2022/05/01 07:46:59;;;;;;;;;15.25;14.50;;;;;13.21;54.10;100614.47;5097930;28;8835;-63
2022/05/01 07:49:26;;;;;;;;;15.50;13.00;;;;;13.27;54.52;100607.78;5097594;28;8966;-63
2022/05/01 07:51:54;;;;;;;;;13.75;12.00;;;;;13.31;54.66;100611.94;5097326;28;8840;-63
2022/05/01 07:54:22;;;;;;;;;14.00;13.50;;;;;13.37;54.27;100606.09;5097055;28;8851;-63
2022/05/01 07:56:50;;;;;;;;;13.75;13.00;;;;;13.44;54.87;100609.97;5097019;28;8927;-62
2022/05/01 07:59:18;;;;;;;;;16.00;14.75;;;;;13.58;53.96;100596.34;5096952;28;8828;-62
2022/05/01 08:01:46;;;;;;;;;14.50;14.00;;;;;13.68;53.97;100589.25;5097277;28;8841;-62
2022/05/01 08:04:28;;;;;;;;;15.75;13.00;;;;;13.83;53.56;100601.38;5097336;28;8839;-62
2022/05/01 08:06:56;;;;;;;;;21.25;17.50;;;;;13.96;53.72;100596.72;5097134;28;8844;-63
2022/05/01 08:09:24;;;;;;;;;21.75;18.75;;;;;14.05;53.36;100588.75;5096759;28;8857;-63
2022/05/01 08:11:52;;;;;;;;;16.00;16.00;;;;;14.15;53.18;100592.38;5096724;28;8816;-63
2022/05/01 08:14:20;;;;;;;;;15.75;14.75;;;;;14.34;52.88;100597.91;5097465;28;8819;-63
2022/05/01 08:16:48;;;;;;;;;21.75;21.50;;;;;14.53;53.04;100592.69;5097295;28;8978;-63
2022/05/01 08:22:01;;;;;;;;;16.50;15.00;;;;;14.85;52.50;100597.94;5096984;28;8831;-62
2022/05/01 08:24:29;;;;;;;;;16.00;15.75;;;;;14.93;52.58;100593.63;5095417;28;8848;-63
2022/05/01 08:26:56;;;;;;;;;13.00;12.00;;;;;15.07;52.47;100595.09;5095902;28;8843;-63
2022/05/01 08:29:24;;;;;;;;;16.00;12.67;;;;;15.17;52.27;100591.47;5096366;28;8835;-63
2022/05/01 08:31:53;;;;;;;;;18.75;17.00;;;;;15.28;52.06;100595.88;5096699;28;8925;-63
2022/05/01 08:34:20;;;;;;;;;14.50;14.00;;;;;15.34;51.66;100587.31;5097070;28;8873;-63
2022/05/01 08:36:48;;;;;;;;;15.00;14.50;;;;;15.40;51.93;100581.41;5097494;28;8946;-64
2022/05/01 08:39:16;;;;;;;;;18.00;16.50;;;;;15.51;52.10;100582.16;5095771;28;8831;-63
2022/05/01 08:41:44;;;;;;;;;16.00;15.00;;;;;15.75;51.58;100579.06;5095408;28;9590;-63
2022/05/01 08:44:11;;;;;;;;;16.50;15.50;;;;;15.98;50.76;100580.50;5095787;28;9683;-63
2022/05/01 08:46:39;;;;;;;;;22.50;16.25;;;;;16.15;50.54;100577.97;5094576;28;8916;-63
2022/05/01 08:49:07;;;;;;;;;15.50;14.50;;;;;16.34;50.34;100584.19;5095371;28;9482;-63
2022/05/01 08:51:35;;;;;;;;;18.75;18.00;;;;;16.56;49.93;100577.69;5096249;28;8839;-63
2022/05/01 08:54:02;;;;;;;;;12.50;12.50;;;;;16.78;49.69;100583.59;5097067;28;8852;-63
2022/05/01 08:56:30;;;;;;;;;16.00;15.00;;;;;16.96;49.29;100578.28;5096848;28;9290;-63
2022/05/01 08:58:58;;;;;;;;;22.00;15.75;;;;;17.13;49.19;100575.69;5096785;28;9692;-63
2022/05/01 09:01:26;;;;;;;;;17.00;14.50;;;;;17.25;49.01;100576.34;5096158;28;8855;-63
2022/05/01 09:03:54;;;;;;;;;9.75;9.50;;;;;17.34;49.22;100570.06;5096274;28;8823;-63
2022/05/01 09:06:22;;;;;;;;;12.75;9.75;;;;;17.52;49.04;100568.28;5096530;28;8896;-63
2022/05/01 09:08:51;;;;;;;;;18.00;16.25;;;;;17.65;48.80;100574.16;5096849;28;8835;-63
2022/05/01 09:14:03;;;;;;;;;8.50;8.00;;;;;17.69;48.61;100571.00;5095420;28;9589;-63
2022/05/01 09:16:32;;;;;;;;;14.00;14.00;;;;;17.73;48.25;100566.16;5094835;28;8844;-63
2022/05/01 09:18:59;;;;;;;;;16.25;15.25;;;;;17.76;48.66;100566.69;5097024;28;8831;-63
2022/05/01 09:21:27;;;;;;;;;15.75;15.00;;;;;17.87;48.17;100565.63;5096416;28;8874;-63
2022/05/01 09:23:55;;;;;;;;;12.00;11.00;;;;;17.98;47.88;100566.25;5096852;28;8831;-63
2022/05/01 09:26:22;;;;;;;;;11.00;11.00;;;;;18.14;47.55;100573.66;5096691;28;8831;-63
2022/05/01 09:28:50;;;;;;;;;8.00;7.00;;;;;18.34;47.05;100570.66;5095945;28;9302;-63
2022/05/01 09:31:18;;;;;;;;;6.75;6.25;;;;;18.49;46.77;100569.09;5095287;28;8835;-63
2022/05/01 09:33:46;;;;;;;;;8.00;8.00;;;;;18.57;46.76;100569.16;5094752;28;8815;-63
2022/05/01 09:36:13;;;;;;;;;8.25;7.25;;;;;18.65;46.43;100569.22;5096038;28;8819;-63
2022/05/01 09:38:43;;;;;;;;;7.40;7.40;;;;;18.67;46.19;100569.91;5095062;28;9255;-63
2022/05/01 09:41:11;;;;;;;;;8.75;8.50;;;;;18.66;46.01;100568.22;5095782;28;9006;-63
2022/05/01 09:43:39;;;;;;;;;12.50;11.00;;;;;18.65;45.83;100571.91;5095374;28;8839;-63
2022/05/01 09:46:07;;;;;;;;;9.25;7.50;;;;;18.55;46.21;100568.50;5095579;28;9485;-63
2022/05/01 09:48:35;;;;;;;;;12.00;10.00;;;;;18.40;46.00;100567.34;5096677;28;8820;-63
2022/05/01 09:51:03;;;;;;;;;11.00;9.75;;;;;18.32;46.48;100567.28;5096080;28;8866;-63
2022/05/01 09:53:31;;;;;;;;;10.00;8.50;;;;;18.21;46.34;100566.66;5094663;28;8854;-63
2022/05/01 09:55:58;;;;;;;;;13.00;13.00;;;;;17.94;46.91;100569.41;5095697;28;9566;-63
2022/05/01 09:58:28;;;;;;;;;7.50;7.50;;;;;17.74;46.87;100565.16;5095979;28;8846;-63
2022/05/01 10:00:56;;;;;;;;;11.75;9.00;;;;;17.59;47.25;100570.22;5095741;28;8835;-63
2022/05/01 10:03:23;;;;;;;;;8.25;8.00;;;;;17.41;47.43;100572.03;5094419;28;8839;-63
2022/05/01 10:05:51;;;;;;;;;10.50;9.50;;;;;17.25;47.55;100574.47;5095163;28;9001;-63
2022/05/01 10:08:19;;;;;;;;;11.00;11.00;;;;;17.17;47.87;100577.06;5094740;28;8827;-63
2022/05/01 10:10:47;;;;;;;;;12.00;12.00;;;;;17.08;47.69;100569.88;5094979;28;8851;-63
2022/05/01 10:13:14;;;;;;;;;14.50;14.25;;;;;17.02;48.12;100570.47;5095115;28;8847;-63
2022/05/01 10:16:03;;;;;;;;;7.00;7.00;;;;;16.95;47.73;100573.91;5094337;28;8937;-63
2022/05/01 10:18:32;;;;;;;;;9.00;9.00;;;;;16.95;47.83;100560.47;5094565;28;8827;-63
2022/05/01 10:20:59;;;;;;;;;9.50;8.00;;;;;16.98;47.32;100565.53;5094465;28;8856;-63
2022/05/01 10:23:27;;;;;;;;;15.00;12.00;;;;;16.97;46.97;100564.69;5094039;28;8823;-63
2022/05/01 10:25:55;;;;;;;;;11.00;11.00;;;;;17.01;47.13;100562.56;5095226;28;8827;-64
2022/05/01 10:28:37;;;;;;;;;11.50;10.25;;;;;17.05;47.05;100558.56;5096093;28;8880;-63
2022/05/01 10:33:50;;;;;;;;;7.25;6.50;;;;;17.09;46.58;100559.97;5095459;28;9595;-62
2022/05/01 10:36:38;;;;;;;;;11.75;11.75;;;;;17.13;46.49;100567.59;5095141;28;8843;-63
2022/05/01 10:39:05;;;;;;;;;9.00;7.00;;;;;17.26;46.60;100559.19;5095935;28;8832;-63
2022/05/01 10:41:34;;;;;;;;;8.00;7.50;;;;;17.55;45.78;100559.91;5095928;28;8870;-62
2022/05/01 10:44:02;;;;;;;;;9.00;9.00;;;;;17.78;45.57;100547.69;5094759;28;9551;-63
2022/05/01 10:46:30;;;;;;;;;10.00;9.00;;;;;17.96;44.91;100538.63;5095132;28;8861;-62
2022/05/01 10:49:00;;;;;;;;;10.50;9.50;;;;;18.04;44.96;100538.69;5095057;28;8838;-62
2022/05/01 10:51:29;;;;;;;;;9.00;8.00;;;;;18.14;44.80;100534.06;5094057;28;8852;-62
2022/05/01 10:53:58;;;;;;;;;11.00;8.50;;;;;18.46;44.36;100533.50;5094658;28;8831;-63
2022/05/01 10:56:28;;;;;;;;;9.50;9.00;;;;;19.23;42.83;100518.97;5094870;28;8837;-63
2022/05/01 10:58:55;;;;;;;;;9.75;9.50;;;;;20.25;41.53;100513.09;5094426;28;8824;-63
2022/05/01 11:01:23;;;;;;;;;8.00;8.00;;;;;21.15;40.27;100509.03;5093803;28;9516;-63
2022/05/01 11:03:51;;;;;;;;;9.60;9.60;;;;;21.52;39.64;100511.06;5094707;28;8862;-63
2022/05/01 11:06:19;;;;;;;;;11.00;10.00;;;;;21.44;40.02;100511.09;5098832;28;8941;-64
2022/05/01 11:08:46;;;;;;;;;4.00;3.60;;;;;21.76;39.43;100502.81;5099089;28;8823;-63
2022/05/01 11:11:14;;;;;;;;;12.00;9.40;;;;;22.40;38.86;100499.59;5098326;28;8853;-64
2022/05/01 11:13:42;;;;;;;;;11.80;11.20;;;;;23.34;37.89;100482.44;5098459;28;8847;-64
2022/05/01 11:16:10;;;;;;;;;13.20;12.40;;;;;24.24;36.39;100480.91;5097918;28;8827;-63
2022/05/01 11:18:37;;;;;;;;;12.00;12.00;;;;;24.82;35.68;100486.00;5098698;28;8930;-64
2022/05/01 11:21:06;;;;;;;;;16.20;12.20;;;;;25.35;34.80;100477.06;5098545;28;8831;-66
2022/05/01 11:23:34;;;;;;;;;12.00;10.40;;;;;25.85;34.63;100467.38;5098011;28;8974;-63
2022/05/01 11:26:02;;;;;;;;;10.00;10.00;;;;;26.44;34.09;100465.56;5098321;28;8863;-63
2022/05/01 11:28:29;;;;;;;;;9.40;7.00;;;;;26.94;33.07;100475.78;5098369;28;8841;-64
2022/05/01 11:31:01;;;;;;;;;10.80;10.40;;;;;27.34;32.42;100471.94;5096058;28;8836;-63
2022/05/01 11:33:29;;;;;;;;;11.80;11.80;;;;;27.49;32.67;100472.47;5098205;28;9505;-64
2022/05/01 11:35:57;;;;;;;;;12.40;11.40;;;;;27.73;32.77;100468.97;5097813;28;8828;-64
2022/05/01 11:38:25;;;;;;;;;10.20;9.00;;;;;27.49;33.44;100475.22;5088188;28;9510;-64
2022/05/01 11:40:53;;;;;;;;;13.20;12.00;;;;;26.36;34.64;100476.69;5078001;28;8829;-64
2022/05/01 11:43:20;;;;;;;;;11.40;11.00;;;;;24.99;36.61;100484.63;5096444;28;8909;-63
2022/05/01 11:45:48;;;;;;;;;14.00;12.00;;;;;23.84;38.68;100479.66;5097444;28;8836;-64
2022/05/01 11:48:16;;;;;;;;;14.40;13.80;;;;;23.01;39.69;100480.28;5096678;28;8839;-64
2022/05/01 11:50:44;;;;;;;;;12.40;11.60;;;;;22.38;40.23;100475.34;5098114;28;8843;-63
2022/05/01 11:53:11;;;;;;;;;13.40;12.20;;;;;21.94;41.21;100477.06;5083535;28;9485;-63
2022/05/01 12:03:55;;;;;;;;;12.00;12.00;;;;;23.69;37.84;100458.97;5097762;28;8847;-64